Time;durP1;ratioP1;P1;durP2;ratioP2;P2;SDS_P1;SDS_P2;PMS_P1;PMS_P2;Temp;Humidity;BMP_temperature;BMP_pressure;BME280_temperature;BME280_humidity;BME280_pressure;Samples;Min_cycle;Max_cycle;Signal;HPM_P1;HPM_P2
2021/11/19 00:01:40;;;;;;;67.75;36.55;;;;;;;;;;5038473;28;20017;-63
2021/11/19 00:04:07;;;;;;;76.85;40.08;;;;;;;;;;5041336;28;20025;-63
2021/11/19 00:06:34;;;;;;;76.20;39.35;;;;;;;;;;5046233;28;20039;-63
2021/11/19 00:09:00;;;;;;;71.50;38.20;;;;;;;;;;5047194;28;20029;-62
2021/11/19 00:11:29;;;;;;;76.07;38.65;;;;;;;;;;5043060;28;20052;-62
2021/11/19 00:13:57;;;;;;;62.92;33.38;;;;;;;;;;5019719;28;20037;-63
2021/11/19 00:16:26;;;;;;;68.50;33.90;;;;;;;;;;5019680;28;20120;-63
2021/11/19 00:18:52;;;;;;;63.60;34.50;;;;;;;;;;5019383;28;20425;-63
2021/11/19 00:21:19;;;;;;;65.20;35.72;;;;;;;;;;5019642;28;20026;-63
2021/11/19 00:23:46;;;;;;;58.55;33.55;;;;;;;;;;5018267;28;20418;-63
2021/11/19 00:26:17;;;;;;;59.13;34.03;;;;;;;;;;5019591;28;20050;-63
2021/11/19 00:28:43;;;;;;;68.25;35.88;;;;;;;;;;5019339;28;20109;-63
2021/11/19 00:31:11;;;;;;;62.22;35.60;;;;;;;;;;5019443;28;20030;-63
2021/11/19 00:33:37;;;;;;;61.53;35.13;;;;;;;;;;5019733;28;20496;-62
2021/11/19 00:36:04;;;;;;;58.22;33.17;;;;;;;;;;5018051;28;20557;-63
2021/11/19 00:38:32;;;;;;;61.15;34.30;;;;;;;;;;5019097;28;20026;-62
2021/11/19 00:41:00;;;;;;;60.72;34.58;;;;;;;;;;5019532;28;20026;-62
2021/11/19 00:43:27;;;;;;;58.38;34.40;;;;;;;;;;5019475;28;20104;-61
2021/11/19 00:45:54;;;;;;;63.47;34.83;;;;;;;;;;5019442;28;20034;-62
2021/11/19 00:48:22;;;;;;;63.25;34.58;;;;;;;;;;5019523;28;20600;-62
2021/11/19 00:50:57;;;;;;;56.17;32.78;;;;;;;;;;5019426;28;20022;-62
2021/11/19 00:53:23;;;;;;;67.70;34.83;;;;;;;;;;5018176;28;20029;-62
2021/11/19 00:55:50;;;;;;;60.15;33.90;;;;;;;;;;5019351;28;20421;-63
2021/11/19 00:58:17;;;;;;;64.97;34.70;;;;;;;;;;5019067;28;20376;-62
2021/11/19 01:00:46;;;;;;;59.70;32.88;;;;;;;;;;5019052;28;20057;-63
2021/11/19 01:03:12;;;;;;;70.95;37.28;;;;;;;;;;5017922;28;20478;-63
2021/11/19 01:05:38;;;;;;;75.00;37.30;;;;;;;;;;5017694;28;20030;-63
2021/11/19 01:08:05;;;;;;;73.97;38.42;;;;;;;;;;5017954;28;20072;-63
2021/11/19 01:10:33;;;;;;;77.25;38.20;;;;;;;;;;5019586;28;20053;-62
2021/11/19 01:12:59;;;;;;;69.47;38.45;;;;;;;;;;5039307;28;20061;-62
2021/11/19 01:15:31;;;;;;;64.45;34.80;;;;;;;;;;5038684;28;20422;-62
2021/11/19 01:17:59;;;;;;;66.25;35.30;;;;;;;;;;5018249;28;20030;-63
2021/11/19 01:20:32;;;;;;;64.32;35.03;;;;;;;;;;5018049;28;20420;-62
2021/11/19 01:22:59;;;;;;;63.03;36.70;;;;;;;;;;5035747;28;20177;-62
2021/11/19 01:25:28;;;;;;;72.22;38.92;;;;;;;;;;5017999;28;20017;-62
2021/11/19 01:27:54;;;;;;;70.35;37.55;;;;;;;;;;5017995;28;20415;-62
2021/11/19 01:30:22;;;;;;;61.75;36.22;;;;;;;;;;5035660;28;20379;-62
2021/11/19 01:32:48;;;;;;;62.22;34.55;;;;;;;;;;5035639;28;20121;-62
2021/11/19 01:35:15;;;;;;;64.75;34.78;;;;;;;;;;5035572;28;20025;-62
2021/11/19 01:37:42;;;;;;;58.17;33.20;;;;;;;;;;5035621;28;20153;-62
2021/11/19 01:40:10;;;;;;;63.10;33.45;;;;;;;;;;5017729;28;20025;-62
2021/11/19 01:42:40;;;;;;;62.15;33.92;;;;;;;;;;5035331;28;20112;-62
2021/11/19 01:45:09;;;;;;;70.63;36.97;;;;;;;;;;5017557;28;20028;-62
2021/11/19 01:47:37;;;;;;;67.53;34.78;;;;;;;;;;5017546;28;20539;-62
2021/11/19 01:50:06;;;;;;;64.75;33.22;;;;;;;;;;5035315;28;20030;-63
2021/11/19 01:52:38;;;;;;;58.08;32.38;;;;;;;;;;5035480;28;20057;-62
2021/11/19 01:55:07;;;;;;;60.10;32.60;;;;;;;;;;5035180;28;20497;-63
2021/11/19 01:57:38;;;;;;;54.60;31.10;;;;;;;;;;5016837;28;20040;-62
2021/11/19 02:00:10;;;;;;;61.03;31.33;;;;;;;;;;5035088;28;20373;-62
2021/11/19 02:02:38;;;;;;;61.42;31.52;;;;;;;;;;5034959;28;20033;-63
2021/11/19 02:05:15;;;;;;;61.88;32.28;;;;;;;;;;5034952;28;20022;-65
2021/11/19 02:07:46;;;;;;;58.65;30.48;;;;;;;;;;5034998;28;20061;-65
2021/11/19 02:10:32;;;;;;;57.27;31.67;;;;;;;;;;5017086;28;20024;-65
2021/11/19 02:13:01;;;;;;;57.80;31.25;;;;;;;;;;5016753;28;20267;-65
2021/11/19 02:15:32;;;;;;;54.35;31.48;;;;;;;;;;5034847;28;20022;-66
2021/11/19 02:18:04;;;;;;;59.55;31.77;;;;;;;;;;5034816;28;20075;-67
2021/11/19 02:20:32;;;;;;;54.70;30.70;;;;;;;;;;5034667;28;20060;-66
2021/11/19 02:23:01;;;;;;;55.10;30.23;;;;;;;;;;5016700;28;20042;-66
2021/11/19 02:25:30;;;;;;;58.53;29.80;;;;;;;;;;5034937;28;20409;-65
2021/11/19 02:27:59;;;;;;;57.42;30.15;;;;;;;;;;5034619;28;20072;-65
2021/11/19 02:30:34;;;;;;;55.45;28.55;;;;;;;;;;5033892;28;20393;-65
2021/11/19 02:33:05;;;;;;;66.28;30.55;;;;;;;;;;5034478;28;20079;-65
2021/11/19 02:35:39;;;;;;;53.80;30.20;;;;;;;;;;5016677;28;20458;-65
2021/11/19 02:38:12;;;;;;;52.28;30.63;;;;;;;;;;5034448;28;20021;-65
2021/11/19 02:40:41;;;;;;;55.45;31.85;;;;;;;;;;5034405;28;20017;-65
2021/11/19 02:43:14;;;;;;;59.20;30.75;;;;;;;;;;5016455;28;20037;-64
2021/11/19 02:45:42;;;;;;;59.22;30.25;;;;;;;;;;5034290;28;20030;-65
2021/11/19 02:48:11;;;;;;;55.40;30.70;;;;;;;;;;5034202;28;20032;-66
2021/11/19 02:50:37;;;;;;;56.30;31.70;;;;;;;;;;5034125;28;20025;-64
2021/11/19 02:53:04;;;;;;;64.80;31.48;;;;;;;;;;5016357;28;20034;-65
2021/11/19 02:55:32;;;;;;;57.33;31.20;;;;;;;;;;5034317;28;20022;-65
2021/11/19 02:57:58;;;;;;;55.22;30.05;;;;;;;;;;5016199;28;20101;-65
2021/11/19 03:00:35;;;;;;;55.22;30.90;;;;;;;;;;5033944;28;20025;-65
2021/11/19 03:03:02;;;;;;;61.53;31.13;;;;;;;;;;5016158;28;20163;-65
2021/11/19 03:05:28;;;;;;;56.15;29.75;;;;;;;;;;5033848;28;20026;-65
2021/11/19 03:07:56;;;;;;;52.60;30.50;;;;;;;;;;5034063;28;20112;-64
2021/11/19 03:10:22;;;;;;;55.28;28.88;;;;;;;;;;5033773;28;20017;-66
2021/11/19 03:12:49;;;;;;;52.90;29.42;;;;;;;;;;5033267;28;20056;-66
2021/11/19 03:15:17;;;;;;;54.92;29.77;;;;;;;;;;5015794;28;20025;-65
2021/11/19 03:17:44;;;;;;;54.13;28.58;;;;;;;;;;5033734;28;20056;-65
2021/11/19 03:20:11;;;;;;;53.65;28.10;;;;;;;;;;5033623;28;20108;-65
2021/11/19 03:22:37;;;;;;;49.63;27.25;;;;;;;;;;5033515;28;20034;-64
2021/11/19 03:25:05;;;;;;;54.40;29.17;;;;;;;;;;5033226;28;20112;-64
2021/11/19 03:27:32;;;;;;;48.78;27.27;;;;;;;;;;5033533;28;20036;-64
2021/11/19 03:29:58;;;;;;;57.85;28.20;;;;;;;;;;5033765;28;20116;-64
2021/11/19 03:32:26;;;;;;;53.35;27.58;;;;;;;;;;5033125;28;20453;-65
2021/11/19 03:34:52;;;;;;;47.60;26.70;;;;;;;;;;5033701;28;20391;-64
2021/11/19 03:37:19;;;;;;;49.47;25.73;;;;;;;;;;5033291;28;20022;-66
2021/11/19 03:39:45;;;;;;;54.42;27.40;;;;;;;;;;5032989;28;20501;-66
2021/11/19 03:42:14;;;;;;;50.17;27.42;;;;;;;;;;5014771;28;20040;-66
2021/11/19 03:44:47;;;;;;;51.00;27.20;;;;;;;;;;5033241;28;20100;-63
2021/11/19 03:47:19;;;;;;;47.67;26.10;;;;;;;;;;5032894;28;20111;-64
2021/11/19 03:49:47;;;;;;;52.30;27.38;;;;;;;;;;5033193;28;20027;-65
2021/11/19 03:52:15;;;;;;;54.63;27.83;;;;;;;;;;5032863;28;20029;-65
2021/11/19 03:54:42;;;;;;;57.30;27.17;;;;;;;;;;5033125;28;20021;-64
2021/11/19 03:57:10;;;;;;;50.53;28.05;;;;;;;;;;5033114;28;20033;-64
2021/11/19 03:59:37;;;;;;;56.58;27.05;;;;;;;;;;5033036;28;20374;-64
2021/11/19 04:02:03;;;;;;;53.15;26.17;;;;;;;;;;5033198;28;20432;-65
2021/11/19 04:04:31;;;;;;;58.38;28.17;;;;;;;;;;5015008;28;20103;-64
2021/11/19 04:07:00;;;;;;;56.45;27.65;;;;;;;;;;5032962;28;20087;-65
2021/11/19 04:09:26;;;;;;;57.17;28.25;;;;;;;;;;5032960;28;20030;-64
2021/11/19 04:11:53;;;;;;;50.72;27.95;;;;;;;;;;5011544;28;20468;-64
2021/11/19 04:14:19;;;;;;;50.83;28.08;;;;;;;;;;5012939;28;20109;-65
2021/11/19 04:16:48;;;;;;;47.85;27.05;;;;;;;;;;5013421;28;20429;-64
2021/11/19 04:19:15;;;;;;;59.72;31.75;;;;;;;;;;5013219;28;20386;-65
2021/11/19 04:21:42;;;;;;;59.42;33.67;;;;;;;;;;5012799;28;20364;-65
2021/11/19 04:24:10;;;;;;;54.35;29.67;;;;;;;;;;5013102;28;20030;-65
2021/11/19 04:26:37;;;;;;;59.85;33.25;;;;;;;;;;5013095;28;20081;-64
2021/11/19 04:29:04;;;;;;;60.45;33.20;;;;;;;;;;5013145;28;20018;-64
2021/11/19 04:31:30;;;;;;;61.38;35.03;;;;;;;;;;5013297;28;20097;-64
2021/11/19 04:33:57;;;;;;;68.03;38.08;;;;;;;;;;5013268;28;20037;-64
2021/11/19 04:36:24;;;;;;;62.10;33.38;;;;;;;;;;5012950;28;20069;-64
2021/11/19 04:38:50;;;;;;;76.80;47.28;;;;;;;;;;5012951;28;20164;-64
2021/11/19 04:41:17;;;;;;;86.15;52.30;;;;;;;;;;5012936;28;20037;-64
2021/11/19 04:43:44;;;;;;;64.47;37.22;;;;;;;;;;5012854;28;20076;-64
2021/11/19 04:46:10;;;;;;;83.70;52.63;;;;;;;;;;5012933;28;20482;-65
2021/11/19 04:48:37;;;;;;;71.85;44.28;;;;;;;;;;5012845;28;20113;-65
2021/11/19 04:51:09;;;;;;;57.97;32.10;;;;;;;;;;5012913;28;20468;-64
2021/11/19 04:53:35;;;;;;;57.30;32.78;;;;;;;;;;5016155;28;20022;-63
2021/11/19 04:56:02;;;;;;;52.38;29.08;;;;;;;;;;5016553;28;20101;-63
2021/11/19 04:58:28;;;;;;;52.38;28.75;;;;;;;;;;5016468;28;20083;-62
2021/11/19 05:00:56;;;;;;;62.20;30.88;;;;;;;;;;5016742;28;20049;-61
2021/11/19 05:03:22;;;;;;;57.42;31.90;;;;;;;;;;5016457;28;20030;-61
2021/11/19 05:05:50;;;;;;;56.03;29.63;;;;;;;;;;5016356;28;20034;-62
2021/11/19 05:08:16;;;;;;;56.97;28.52;;;;;;;;;;5015987;28;20022;-64
2021/11/19 05:10:44;;;;;;;51.63;26.95;;;;;;;;;;5017563;28;20375;-64
2021/11/19 05:13:10;;;;;;;64.45;34.90;;;;;;;;;;5036054;28;20084;-65
2021/11/19 05:15:44;;;;;;;93.57;45.40;;;;;;;;;;5035855;28;20052;-63
2021/11/19 05:18:11;;;;;;;71.53;36.67;;;;;;;;;;5035959;28;20021;-63
2021/11/19 05:20:38;;;;;;;69.95;34.60;;;;;;;;;;5018040;28;20025;-63
2021/11/19 05:23:05;;;;;;;72.88;39.80;;;;;;;;;;5035867;28;20034;-63
2021/11/19 05:25:32;;;;;;;98.32;52.20;;;;;;;;;;5035798;28;20027;-63
2021/11/19 05:27:59;;;;;;;88.78;46.58;;;;;;;;;;5035714;28;20036;-63
2021/11/19 05:30:25;;;;;;;80.07;40.72;;;;;;;;;;5017902;28;20037;-65
2021/11/19 05:32:54;;;;;;;56.67;32.05;;;;;;;;;;5035896;28;20040;-62
2021/11/19 05:35:21;;;;;;;59.65;31.42;;;;;;;;;;5035557;28;20029;-65
2021/11/19 05:37:48;;;;;;;61.35;32.30;;;;;;;;;;5035555;28;20078;-62
2021/11/19 05:40:15;;;;;;;57.20;31.48;;;;;;;;;;5017531;28;20029;-65
2021/11/19 05:42:42;;;;;;;55.35;29.17;;;;;;;;;;5035381;28;20033;-62
2021/11/19 05:45:09;;;;;;;55.20;26.40;;;;;;;;;;5017589;28;20064;-64
2021/11/19 05:47:36;;;;;;;53.90;26.98;;;;;;;;;;5017529;28;20076;-64
2021/11/19 05:50:03;;;;;;;68.22;32.28;;;;;;;;;;5017564;28;20065;-64
2021/11/19 05:52:30;;;;;;;81.03;37.30;;;;;;;;;;5035195;28;20030;-63
2021/11/19 05:54:59;;;;;;;45.58;26.17;;;;;;;;;;5035221;28;20105;-64
2021/11/19 05:57:25;;;;;;;49.65;26.50;;;;;;;;;;5035091;28;20418;-63
2021/11/19 05:59:51;;;;;;;52.47;27.83;;;;;;;;;;5035177;28;20028;-63
2021/11/19 06:02:18;;;;;;;49.58;25.58;;;;;;;;;;5035040;28;20087;-63
2021/11/19 06:04:46;;;;;;;57.22;26.15;;;;;;;;;;5034291;28;20072;-63
2021/11/19 06:07:12;;;;;;;53.92;27.80;;;;;;;;;;5034765;28;20049;-63
2021/11/19 06:09:40;;;;;;;59.28;27.88;;;;;;;;;;5034951;28;20033;-63
2021/11/19 06:12:15;;;;;;;66.47;30.55;;;;;;;;;;5034901;28;20077;-63
2021/11/19 06:14:51;;;;;;;80.78;37.10;;;;;;;;;;5035170;28;20034;-63
2021/11/19 06:17:20;;;;;;;120.03;52.88;;;;;;;;;;5034853;28;20029;-63
2021/11/19 06:19:48;;;;;;;191.25;81.20;;;;;;;;;;5034733;28;20470;-63
2021/11/19 06:22:17;;;;;;;149.35;64.40;;;;;;;;;;5034626;28;20045;-63
2021/11/19 06:24:45;;;;;;;115.75;53.28;;;;;;;;;;5016825;28;20362;-63
2021/11/19 06:27:12;;;;;;;109.07;51.28;;;;;;;;;;5016751;28;20026;-63
2021/11/19 06:29:39;;;;;;;112.03;57.55;;;;;;;;;;5034391;28;20030;-63
2021/11/19 06:32:06;;;;;;;124.70;59.38;;;;;;;;;;5034469;28;20036;-63
2021/11/19 06:34:32;;;;;;;103.95;54.20;;;;;;;;;;5034059;28;20355;-63
2021/11/19 06:36:59;;;;;;;106.70;54.75;;;;;;;;;;5034393;28;20030;-64
2021/11/19 06:39:26;;;;;;;133.63;62.25;;;;;;;;;;5034645;28;20029;-63
2021/11/19 06:41:52;;;;;;;132.73;65.30;;;;;;;;;;5034216;28;20029;-64
2021/11/19 06:44:18;;;;;;;163.90;87.70;;;;;;;;;;5042815;28;20025;-64
2021/11/19 06:46:44;;;;;;;159.63;86.45;;;;;;;;;;5052297;28;20440;-63
2021/11/19 06:49:11;;;;;;;164.95;80.38;;;;;;;;;;5053984;28;20021;-63
2021/11/19 06:51:38;;;;;;;169.25;83.45;;;;;;;;;;5053892;28;20021;-64
2021/11/19 06:54:04;;;;;;;151.45;78.20;;;;;;;;;;5053856;28;20385;-63
2021/11/19 06:56:31;;;;;;;144.43;75.97;;;;;;;;;;5053612;28;20029;-63
2021/11/19 06:58:58;;;;;;;146.20;72.70;;;;;;;;;;5053825;28;20024;-64
2021/11/19 07:01:24;;;;;;;145.57;70.93;;;;;;;;;;5054019;28;20075;-64
2021/11/19 07:03:50;;;;;;;136.13;72.63;;;;;;;;;;5053619;28;20186;-64
2021/11/19 07:06:16;;;;;;;144.07;72.85;;;;;;;;;;5053658;28;20029;-63
2021/11/19 07:08:43;;;;;;;119.18;63.75;;;;;;;;;;5053529;28;20096;-63
2021/11/19 07:11:14;;;;;;;116.25;52.83;;;;;;;;;;5031950;28;20155;-63
2021/11/19 07:13:41;;;;;;;104.78;53.95;;;;;;;;;;5033671;28;20047;-63
2021/11/19 07:16:07;;;;;;;105.72;50.10;;;;;;;;;;5031283;28;20060;-63
2021/11/19 07:18:34;;;;;;;102.85;48.38;;;;;;;;;;5033421;28;20033;-63
2021/11/19 07:21:01;;;;;;;94.20;44.42;;;;;;;;;;5032302;28;20032;-63
2021/11/19 07:23:27;;;;;;;93.15;41.80;;;;;;;;;;5032687;28;20463;-63
2021/11/19 07:25:55;;;;;;;87.53;40.90;;;;;;;;;;5033199;28;20485;-63
2021/11/19 07:28:21;;;;;;;84.03;40.67;;;;;;;;;;5033276;28;20040;-63
2021/11/19 07:30:51;;;;;;;76.40;34.67;;;;;;;;;;5033130;28;20144;-61
2021/11/19 07:33:18;;;;;;;73.32;34.92;;;;;;;;;;5033078;28;20032;-61
2021/11/19 07:35:44;;;;;;;62.45;29.25;;;;;;;;;;5028566;28;20034;-61
2021/11/19 07:38:11;;;;;;;63.65;32.90;;;;;;;;;;5013011;28;20029;-63
2021/11/19 07:40:39;;;;;;;60.33;30.50;;;;;;;;;;5013107;28;20026;-62
2021/11/19 07:43:05;;;;;;;55.03;27.67;;;;;;;;;;5011941;28;20497;-61
2021/11/19 07:45:37;;;;;;;45.15;24.85;;;;;;;;;;5012029;28;20085;-62
2021/11/19 07:48:14;;;;;;;51.55;25.27;;;;;;;;;;5011946;28;20072;-63
2021/11/19 07:50:42;;;;;;;52.05;24.13;;;;;;;;;;5013130;28;20033;-62
2021/11/19 07:53:09;;;;;;;42.50;24.42;;;;;;;;;;5018727;28;20055;-63
2021/11/19 07:55:35;;;;;;;40.10;23.65;;;;;;;;;;5011739;28;20471;-61
2021/11/19 07:58:02;;;;;;;44.15;22.40;;;;;;;;;;5012987;28;20061;-62
2021/11/19 08:00:30;;;;;;;45.50;24.25;;;;;;;;;;5013422;28;20022;-63
2021/11/19 08:02:56;;;;;;;45.78;24.83;;;;;;;;;;5011644;28;20038;-64
2021/11/19 08:05:22;;;;;;;36.00;21.13;;;;;;;;;;5013025;28;20068;-63
2021/11/19 08:07:48;;;;;;;44.92;25.90;;;;;;;;;;5012490;28;20030;-62
2021/11/19 08:10:47;;;;;;;58.72;30.80;;;;;;;;;;5012932;28;20486;-64
2021/11/19 08:13:17;;;;;;;47.03;26.92;;;;;;;;;;5030860;28;20025;-62
2021/11/19 08:15:44;;;;;;;49.92;26.90;;;;;;;;;;5046732;28;20370;-64
2021/11/19 08:18:31;;;;;;;49.22;27.23;;;;;;;;;;5052685;28;20075;-62
2021/11/19 08:20:58;;;;;;;53.30;29.33;;;;;;;;;;5052246;28;20410;-63
2021/11/19 08:23:35;;;;;;;52.80;28.50;;;;;;;;;;5052516;28;20064;-63
2021/11/19 08:26:06;;;;;;;45.92;24.02;;;;;;;;;;5052622;28;20047;-63
2021/11/19 08:28:33;;;;;;;37.10;21.42;;;;;;;;;;5055603;28;20488;-63
2021/11/19 08:31:00;;;;;;;44.60;23.35;;;;;;;;;;5056543;28;20040;-63
2021/11/19 08:33:26;;;;;;;39.17;21.50;;;;;;;;;;5038886;28;20397;-62
2021/11/19 08:35:52;;;;;;;40.30;23.30;;;;;;;;;;5056481;28;20036;-62
2021/11/19 08:38:20;;;;;;;38.78;21.75;;;;;;;;;;5054117;28;20062;-62
2021/11/19 08:40:47;;;;;;;36.45;20.35;;;;;;;;;;5054479;28;20487;-61
2021/11/19 08:43:18;;;;;;;49.42;27.15;;;;;;;;;;5038124;28;20124;-61
2021/11/19 08:45:45;;;;;;;36.10;19.77;;;;;;;;;;5056321;28;20033;-61
2021/11/19 08:48:11;;;;;;;39.92;20.88;;;;;;;;;;5056213;28;20477;-61
2021/11/19 08:50:39;;;;;;;42.08;20.33;;;;;;;;;;5038198;28;20025;-61
2021/11/19 08:53:07;;;;;;;43.40;21.80;;;;;;;;;;5056196;28;20460;-61
2021/11/19 08:55:33;;;;;;;40.35;23.10;;;;;;;;;;5038226;28;20366;-62
2021/11/19 08:58:00;;;;;;;31.60;18.05;;;;;;;;;;5055986;28;20021;-62
2021/11/19 09:00:28;;;;;;;39.13;20.88;;;;;;;;;;5056043;28;20079;-63
2021/11/19 09:02:59;;;;;;;30.15;17.88;;;;;;;;;;5038064;28;20378;-62
2021/11/19 09:05:25;;;;;;;43.03;23.25;;;;;;;;;;5055983;28;20021;-63
2021/11/19 09:07:52;;;;;;;36.10;20.60;;;;;;;;;;5038030;28;20139;-63
2021/11/19 09:10:18;;;;;;;31.63;17.25;;;;;;;;;;5055562;28;20017;-62
2021/11/19 09:12:44;;;;;;;25.85;15.73;;;;;;;;;;5037760;28;20084;-62
2021/11/19 09:15:12;;;;;;;39.22;17.83;;;;;;;;;;5055813;28;20032;-62
2021/11/19 09:17:57;;;;;;;28.55;15.48;;;;;;;;;;5055737;28;20025;-64
2021/11/19 09:20:29;;;;;;;25.00;14.38;;;;;;;;;;5055776;28;20047;-64
2021/11/19 09:23:05;;;;;;;30.58;16.38;;;;;;;;;;5037838;28;20385;-61
2021/11/19 09:25:32;;;;;;;28.05;15.10;;;;;;;;;;5055650;28;20032;-61
2021/11/19 09:27:58;;;;;;;31.63;16.08;;;;;;;;;;5055138;28;20024;-62
2021/11/19 09:30:36;;;;;;;32.95;17.27;;;;;;;;;;5037160;28;20025;-62
2021/11/19 09:33:03;;;;;;;37.80;17.00;;;;;;;;;;5055529;28;20470;-65
2021/11/19 09:35:30;;;;;;;33.13;17.70;;;;;;;;;;5055652;28;20454;-65
2021/11/19 09:37:57;;;;;;;29.95;17.63;;;;;;;;;;5054925;28;20465;-64
2021/11/19 09:40:25;;;;;;;26.95;15.38;;;;;;;;;;5054876;28;20370;-62
2021/11/19 09:43:01;;;;;;;25.70;15.57;;;;;;;;;;5037316;28;20067;-62
2021/11/19 09:45:27;;;;;;;26.88;15.73;;;;;;;;;;5037325;28;20025;-62
2021/11/19 09:48:03;;;;;;;34.65;19.05;;;;;;;;;;5037177;28;20108;-62
2021/11/19 09:50:38;;;;;;;30.33;16.77;;;;;;;;;;5054937;28;20021;-63
2021/11/19 09:53:16;;;;;;;28.17;16.75;;;;;;;;;;5055057;28;20033;-63
2021/11/19 09:56:15;;;;;;;27.98;15.48;;;;;;;;;;5037189;28;20021;-65
2021/11/19 09:58:47;;;;;;;25.55;13.82;;;;;;;;;;4989329;28;20035;-62
2021/11/19 10:01:19;;;;;;;25.65;15.50;;;;;;;;;;5035042;28;20052;-62
2021/11/19 10:03:56;;;;;;;27.33;15.70;;;;;;;;;;5034978;28;20163;-63
2021/11/19 10:06:30;;;;;;;25.52;14.82;;;;;;;;;;5034890;28;20025;-62
2021/11/19 10:08:57;;;;;;;26.50;14.30;;;;;;;;;;5034560;28;20172;-62
2021/11/19 10:11:26;;;;;;;27.00;14.23;;;;;;;;;;5033735;28;20049;-62
2021/11/19 10:13:59;;;;;;;25.70;13.25;;;;;;;;;;5034841;28;20057;-64
2021/11/19 10:16:43;;;;;;;18.63;13.10;;;;;;;;;;5016780;28;20531;-63
2021/11/19 10:19:18;;;;;;;24.33;14.95;;;;;;;;;;5034754;28;20021;-64
2021/11/19 10:21:57;;;;;;;28.10;15.18;;;;;;;;;;5041623;28;20017;-64
2021/11/19 10:24:36;;;;;;;28.80;15.25;;;;;;;;;;5054077;28;20059;-64
2021/11/19 10:27:04;;;;;;;24.65;15.07;;;;;;;;;;5054500;28;20021;-63
2021/11/19 10:29:34;;;;;;;25.23;14.45;;;;;;;;;;5054662;28;20078;-62
2021/11/19 10:32:01;;;;;;;26.95;16.25;;;;;;;;;;5054210;28;20359;-66
2021/11/19 10:34:47;;;;;;;25.40;14.35;;;;;;;;;;5054445;28;20067;-65
2021/11/19 10:37:13;;;;;;;32.45;16.45;;;;;;;;;;5036327;28;20021;-67
2021/11/19 10:39:53;;;;;;;32.78;17.05;;;;;;;;;;5054292;28;20108;-65
2021/11/19 10:42:39;;;;;;;21.67;13.25;;;;;;;;;;5036270;28;20029;-67
2021/11/19 10:45:25;;;;;;;30.25;15.43;;;;;;;;;;5036263;28;20020;-66
2021/11/19 10:47:51;;;;;;;23.02;15.55;;;;;;;;;;5036093;28;20032;-66
2021/11/19 10:50:20;;;;;;;27.83;15.27;;;;;;;;;;5053747;28;20036;-68
2021/11/19 10:52:49;;;;;;;25.67;15.13;;;;;;;;;;5054090;28;20108;-68
2021/11/19 10:55:18;;;;;;;25.00;14.85;;;;;;;;;;5050531;28;20343;-67
2021/11/19 10:58:03;;;;;;;28.27;16.08;;;;;;;;;;5053356;28;20029;-68
2021/11/19 11:00:52;;;;;;;23.35;13.75;;;;;;;;;;5053751;28;20029;-68
2021/11/19 11:03:21;;;;;;;33.45;16.48;;;;;;;;;;5053680;28;20059;-68
2021/11/19 11:05:55;;;;;;;24.23;14.75;;;;;;;;;;5034961;28;20025;-67
2021/11/19 11:08:23;;;;;;;53.92;26.15;;;;;;;;;;5053600;28;20104;-68
2021/11/19 11:10:50;;;;;;;34.05;18.30;;;;;;;;;;5053766;28;20517;-65
2021/11/19 11:13:23;;;;;;;27.40;16.80;;;;;;;;;;5053030;28;20107;-66
2021/11/19 11:16:01;;;;;;;26.00;16.35;;;;;;;;;;5053438;28;20044;-66
2021/11/19 11:18:29;;;;;;;33.50;17.02;;;;;;;;;;5035467;28;20017;-67
2021/11/19 11:20:58;;;;;;;29.58;17.40;;;;;;;;;;5035312;28;20032;-68
2021/11/19 11:23:43;;;;;;;32.17;17.95;;;;;;;;;;5053220;28;20422;-66
2021/11/19 11:26:28;;;;;;;32.72;17.30;;;;;;;;;;5053268;28;20028;-66
2021/11/19 11:28:59;;;;;;;30.95;17.40;;;;;;;;;;5035160;28;20025;-65
2021/11/19 11:31:26;;;;;;;;;;;;;;;;;;5052541;28;20021;-66
2021/11/19 11:34:03;;;;;;;25.77;15.52;;;;;;;;;;5034992;28;20356;-67
2021/11/19 11:36:36;;;;;;;30.13;17.30;;;;;;;;;;5051211;28;20013;-68
2021/11/19 11:39:06;;;;;;;28.65;18.15;;;;;;;;;;5051703;28;20088;-65
2021/11/19 11:41:35;;;;;;;30.13;17.33;;;;;;;;;;5053213;28;20025;-64
2021/11/19 11:44:10;;;;;;;33.25;17.83;;;;;;;;;;5052907;28;20055;-66
2021/11/19 11:46:53;;;;;;;27.75;16.52;;;;;;;;;;5053000;28;20020;-67
2021/11/19 11:49:32;;;;;;;35.70;17.23;;;;;;;;;;5052857;28;20075;-66
2021/11/19 11:52:17;;;;;;;28.85;17.15;;;;;;;;;;5032647;28;20476;-68
2021/11/19 11:55:03;;;;;;;31.30;17.65;;;;;;;;;;5053254;28;20523;-68
2021/11/19 11:57:29;;;;;;;30.73;18.65;;;;;;;;;;5052809;28;20458;-66
2021/11/19 12:00:14;;;;;;;36.20;20.88;;;;;;;;;;5034902;28;20037;-66
2021/11/19 12:02:50;;;;;;;31.98;17.85;;;;;;;;;;5034212;28;20029;-65
2021/11/19 12:05:28;;;;;;;29.38;17.70;;;;;;;;;;5052597;28;20027;-65
2021/11/19 12:08:02;;;;;;;30.38;18.60;;;;;;;;;;5052556;28;20036;-65
2021/11/19 12:10:29;;;;;;;29.75;16.75;;;;;;;;;;5053017;28;20023;-66
2021/11/19 12:12:59;;;;;;;32.28;18.45;;;;;;;;;;5050461;28;20572;-67
2021/11/19 12:15:26;;;;;;;34.50;19.10;;;;;;;;;;5034607;28;20051;-67
2021/11/19 12:17:52;;;;;;;36.85;18.30;;;;;;;;;;5052644;28;20017;-67
2021/11/19 12:20:25;;;;;;;34.28;20.15;;;;;;;;;;5034679;28;20021;-65
2021/11/19 12:22:54;;;;;;;33.13;19.02;;;;;;;;;;5052233;28;20112;-65
2021/11/19 12:25:30;;;;;;;27.65;17.35;;;;;;;;;;5034185;28;20162;-65
2021/11/19 12:27:57;;;;;;;41.08;21.73;;;;;;;;;;5034681;28;20156;-68
2021/11/19 12:30:26;;;;;;;34.30;18.60;;;;;;;;;;5052338;28;20025;-68
2021/11/19 12:32:59;;;;;;;28.80;17.08;;;;;;;;;;5051503;28;20466;-66
2021/11/19 12:35:25;;;;;;;40.95;19.13;;;;;;;;;;5052172;28;20104;-64
2021/11/19 12:37:54;;;;;;;29.48;16.42;;;;;;;;;;5052407;28;20060;-65
2021/11/19 12:40:34;;;;;;;33.15;19.33;;;;;;;;;;5051911;28;20032;-62
2021/11/19 12:43:15;;;;;;;28.80;16.58;;;;;;;;;;5052222;28;20025;-63
2021/11/19 12:45:45;;;;;;;28.42;16.40;;;;;;;;;;5051997;28;20497;-66
2021/11/19 12:48:27;;;;;;;27.52;15.15;;;;;;;;;;5034420;28;20496;-64
2021/11/19 12:50:56;;;;;;;27.48;15.05;;;;;;;;;;5052260;28;20462;-66
2021/11/19 12:53:35;;;;;;;29.92;16.67;;;;;;;;;;5052336;28;20032;-65
2021/11/19 12:56:01;;;;;;;26.23;15.88;;;;;;;;;;5034340;28;20104;-65
2021/11/19 12:58:38;;;;;;;24.48;14.98;;;;;;;;;;5034308;28;20021;-65
2021/11/19 13:01:13;;;;;;;29.95;15.15;;;;;;;;;;5052133;28;20036;-66
2021/11/19 13:03:48;;;;;;;24.30;15.18;;;;;;;;;;5049922;28;20119;-64
2021/11/19 13:06:18;;;;;;;23.63;13.10;;;;;;;;;;5051784;28;20060;-65
2021/11/19 13:08:46;;;;;;;27.48;15.10;;;;;;;;;;5052006;28;20473;-62
2021/11/19 13:11:19;;;;;;;22.08;13.98;;;;;;;;;;5050324;28;20056;-65
2021/11/19 13:13:45;;;;;;;25.83;14.23;;;;;;;;;;5053324;28;20078;-66
2021/11/19 13:16:26;;;;;;;27.42;15.50;;;;;;;;;;5054390;28;20485;-66
2021/11/19 13:18:54;;;;;;;36.35;17.45;;;;;;;;;;5031820;28;20382;-65
2021/11/19 13:21:36;;;;;;;28.23;16.58;;;;;;;;;;5055355;28;20027;-65
2021/11/19 13:24:14;;;;;;;26.08;15.23;;;;;;;;;;5055617;28;20421;-65
2021/11/19 13:26:40;;;;;;;32.42;14.80;;;;;;;;;;5055488;28;20028;-65
2021/11/19 13:29:10;;;;;;;25.40;15.30;;;;;;;;;;5055361;28;20017;-65
2021/11/19 13:31:38;;;;;;;30.95;17.02;;;;;;;;;;5054889;28;20047;-65
2021/11/19 13:34:04;;;;;;;29.98;15.95;;;;;;;;;;5055726;28;20025;-65
2021/11/19 13:36:41;;;;;;;44.42;20.92;;;;;;;;;;5053955;28;20071;-64
2021/11/19 13:39:07;;;;;;;45.72;21.77;;;;;;;;;;5053969;28;20053;-64
2021/11/19 13:41:34;;;;;;;86.95;36.45;;;;;;;;;;5055408;28;20048;-66
2021/11/19 13:44:00;;;;;;;103.22;43.63;;;;;;;;;;5055179;28;20465;-66
2021/11/19 13:46:39;;;;;;;56.50;26.13;;;;;;;;;;5055061;28;20021;-64
2021/11/19 13:49:11;;;;;;;52.25;23.35;;;;;;;;;;5055387;28;20495;-65
2021/11/19 13:51:53;;;;;;;46.33;21.55;;;;;;;;;;5055243;28;20101;-64
2021/11/19 13:54:19;;;;;;;;;;;;;;;;;;5055702;28;20029;-64
2021/11/19 13:57:07;;;;;;;30.25;17.75;;;;;;;;;;5055133;28;19912;-64
2021/11/19 13:59:41;;;;;;;37.95;19.60;;;;;;;;;;5055412;28;20021;-66
2021/11/19 14:02:09;;;;;;;35.45;18.50;;;;;;;;;;5054712;28;20104;-63
2021/11/19 14:04:50;;;;;;;37.30;21.83;;;;;;;;;;5055049;28;20053;-63
2021/11/19 14:07:16;;;;;;;37.70;20.23;;;;;;;;;;5054850;28;20017;-65
2021/11/19 14:09:48;;;;;;;37.90;18.90;;;;;;;;;;5054855;28;20062;-65
2021/11/19 14:12:19;;;;;;;34.45;19.23;;;;;;;;;;5068819;28;20120;-64
2021/11/19 14:14:46;;;;;;;34.53;19.17;;;;;;;;;;5074653;28;20024;-66
2021/11/19 14:17:23;;;;;;;33.63;18.20;;;;;;;;;;5074598;28;20024;-64
2021/11/19 14:21:56;;;;;;;39.15;20.48;;;;;;;;;;5074565;28;20028;-65
2021/11/19 14:22:44;;;;;;;44.08;21.85;;;;;;;;;;5073997;28;20477;-65
2021/11/19 14:25:15;;;;;;;39.60;24.10;;;;;;;;;;5074250;28;20103;-63
2021/11/19 14:27:53;;;;;;;40.85;24.27;;;;;;;;;;5074191;28;20055;-64
2021/11/19 14:30:24;;;;;;;45.20;22.88;;;;;;;;;;5074402;28;20025;-64
2021/11/19 14:32:53;;;;;;;35.85;19.20;;;;;;;;;;5074294;28;20028;-65